Time;durP1;ratioP1;P1;durP2;ratioP2;P2;SDS_P1;SDS_P2;PMS_P1;PMS_P2;Temp;Humidity;BMP_temperature;BMP_pressure;BME280_temperature;BME280_humidity;BME280_pressure;Samples;Min_cycle;Max_cycle;Signal;HPM_P1;HPM_P2
2021/03/21 00:02:16;;;;;;;16.52;14.32;;;7.90;99.90;;;;;;5079741;28;20329;-78
2021/03/21 00:04:43;;;;;;;21.80;17.08;;;7.90;99.90;;;;;;5081254;28;20311;-80
2021/03/21 00:07:09;;;;;;;21.55;15.52;;;7.90;99.90;;;;;;5085266;28;20676;-81
2021/03/21 00:09:36;;;;;;;24.38;17.67;;;7.90;99.90;;;;;;5081962;28;20223;-80
2021/03/21 00:12:04;;;;;;;25.77;16.83;;;7.90;99.90;;;;;;5076739;28;20514;-79
2021/03/21 00:14:31;;;;;;;18.58;15.00;;;7.90;99.90;;;;;;5079170;28;20572;-81
2021/03/21 00:16:58;;;;;;;18.23;14.48;;;7.90;99.90;;;;;;5085502;28;20193;-80
2021/03/21 00:19:24;;;;;;;19.90;14.20;;;7.90;99.90;;;;;;5084348;28;20200;-79
2021/03/21 00:21:51;;;;;;;18.42;14.40;;;7.90;99.90;;;;;;5088649;28;20198;-80
2021/03/21 00:24:17;;;;;;;19.95;15.07;;;7.80;99.90;;;;;;5083456;28;20745;-79
2021/03/21 00:26:43;;;;;;;16.92;14.05;;;7.80;99.90;;;;;;5084123;28;20671;-80
2021/03/21 00:29:11;;;;;;;20.35;16.20;;;7.80;99.90;;;;;;5082932;28;20285;-79
2021/03/21 00:31:38;;;;;;;19.15;14.20;;;7.80;99.90;;;;;;5082087;28;20225;-80
2021/03/21 00:34:04;;;;;;;22.40;15.48;;;7.80;99.90;;;;;;5090745;28;20232;-79
2021/03/21 00:36:31;;;;;;;21.45;14.38;;;7.80;99.90;;;;;;5081153;28;20194;-78
2021/03/21 00:38:57;;;;;;;18.67;13.73;;;7.70;99.90;;;;;;5080541;28;20285;-81
2021/03/21 00:41:26;;;;;;;22.77;15.63;;;7.70;99.90;;;;;;5083223;28;20198;-81
2021/03/21 00:43:54;;;;;;;20.27;14.85;;;7.70;99.90;;;;;;5083615;28;20248;-81
2021/03/21 00:46:22;;;;;;;21.05;14.77;;;7.70;99.90;;;;;;5087334;28;20199;-82
2021/03/21 00:48:49;;;;;;;21.10;14.82;;;7.70;99.90;;;;;;5083329;28;20207;-80
2021/03/21 00:51:17;;;;;;;20.15;14.93;;;7.70;99.90;;;;;;5085575;28;20233;-79
2021/03/21 00:53:44;;;;;;;19.42;15.40;;;7.70;99.90;;;;;;5085182;28;20194;-79
2021/03/21 00:56:22;;;;;;;19.95;14.95;;;7.70;99.90;;;;;;5081275;28;20587;-80
2021/03/21 00:58:48;;;;;;;20.50;14.75;;;7.70;99.90;;;;;;5083390;28;20299;-79
2021/03/21 01:01:15;;;;;;;21.17;15.35;;;7.60;99.90;;;;;;5089540;28;20278;-79
2021/03/21 01:03:42;;;;;;;19.15;14.98;;;7.60;99.90;;;;;;5084511;28;20224;-80
2021/03/21 01:06:09;;;;;;;23.42;14.80;;;7.60;99.90;;;;;;5082580;28;20237;-81
2021/03/21 01:08:37;;;;;;;18.80;13.45;;;7.60;99.90;;;;;;5084012;28;20224;-78
2021/03/21 01:11:08;;;;;;;17.23;13.73;;;7.60;99.90;;;;;;5080560;28;20201;-80
2021/03/21 01:13:36;;;;;;;18.58;14.43;;;7.60;99.90;;;;;;5085875;28;20628;-77
2021/03/21 01:16:06;;;;;;;20.70;15.50;;;7.60;99.90;;;;;;5087243;28;20304;-78
2021/03/21 01:18:33;;;;;;;18.55;14.68;;;7.60;99.90;;;;;;5085192;28;20227;-76
2021/03/21 01:21:02;;;;;;;20.80;15.57;;;7.60;99.90;;;;;;5081694;28;20280;-77
2021/03/21 01:23:29;;;;;;;16.05;12.63;;;7.50;99.90;;;;;;5081921;28;20312;-76
2021/03/21 01:25:55;;;;;;;21.48;14.00;;;7.60;99.90;;;;;;5086151;28;20190;-77
2021/03/21 01:28:25;;;;;;;21.35;15.52;;;7.60;99.90;;;;;;5089805;28;20199;-79
2021/03/21 01:30:52;;;;;;;18.02;13.40;;;7.60;99.90;;;;;;5078945;28;20202;-77
2021/03/21 01:33:19;;;;;;;23.52;15.10;;;7.50;99.90;;;;;;5081424;28;20646;-77
2021/03/21 01:35:48;;;;;;;21.83;14.32;;;7.60;99.90;;;;;;5085671;28;20266;-79
2021/03/21 01:38:16;;;;;;;22.17;14.40;;;7.60;99.90;;;;;;5075100;28;20238;-79
2021/03/21 01:40:43;;;;;;;22.73;14.65;;;7.60;99.90;;;;;;5083659;28;20188;-77
2021/03/21 01:43:12;;;;;;;18.88;13.30;;;7.70;99.90;;;;;;5082840;28;20184;-77
2021/03/21 01:45:41;;;;;;;19.42;14.15;;;7.70;99.90;;;;;;5084986;28;20551;-77
2021/03/21 01:48:17;;;;;;;15.57;12.82;;;7.60;99.90;;;;;;5077292;28;20555;-78
2021/03/21 01:50:51;;;;;;;17.80;12.73;;;7.70;99.90;;;;;;5082720;28;20282;-78
2021/03/21 01:53:21;;;;;;;16.35;11.50;;;7.70;99.90;;;;;;5081062;28;20340;-77
2021/03/21 01:55:49;;;;;;;16.35;11.52;;;7.60;99.90;;;;;;5080345;28;20204;-77
2021/03/21 01:58:17;;;;;;;15.95;11.80;;;7.60;99.90;;;;;;5086114;28;20547;-79
2021/03/21 02:00:45;;;;;;;15.73;11.00;;;7.60;99.90;;;;;;5077467;28;20216;-76
2021/03/21 02:03:13;;;;;;;13.20;10.38;;;7.60;99.90;;;;;;5088207;28;20196;-78
2021/03/21 02:05:40;;;;;;;15.88;12.45;;;7.60;99.90;;;;;;5081589;28;20289;-77
2021/03/21 02:08:30;;;;;;;19.55;12.18;;;7.60;99.90;;;;;;5080270;28;20883;-79
2021/03/21 02:11:03;;;;;;;14.23;11.20;;;7.60;99.90;;;;;;5073971;28;20188;-77
2021/03/21 02:13:38;;;;;;;14.40;10.98;;;7.60;99.90;;;;;;5085086;28;20571;-77
2021/03/21 02:16:08;;;;;;;14.02;10.77;;;7.60;99.90;;;;;;5082310;28;20229;-79
2021/03/21 02:18:45;;;;;;;16.75;11.23;;;7.60;99.90;;;;;;5085148;28;20193;-78
2021/03/21 02:21:22;;;;;;;15.20;11.68;;;7.60;99.90;;;;;;5086481;28;20235;-78
2021/03/21 02:24:12;;;;;;;13.75;10.82;;;7.60;99.90;;;;;;5081221;28;20291;-79
2021/03/21 02:27:05;;;;;;;17.35;11.15;;;7.60;99.90;;;;;;5059926;28;20298;-78
2021/03/21 02:29:40;;;;;;;15.23;11.75;;;7.60;99.90;;;;;;5078295;28;20200;-77
2021/03/21 02:32:13;;;;;;;16.00;12.32;;;7.60;99.90;;;;;;5080367;28;20243;-77
2021/03/21 02:34:48;;;;;;;15.60;11.60;;;7.70;99.90;;;;;;5080401;28;20283;-80
2021/03/21 02:37:22;;;;;;;14.68;11.63;;;7.60;99.90;;;;;;5078781;28;20192;-77
2021/03/21 02:39:55;;;;;;;22.13;14.15;;;7.60;99.90;;;;;;5081632;28;20227;-78
2021/03/21 02:42:27;;;;;;;15.88;11.60;;;7.60;99.90;;;;;;5086038;28;20647;-77
2021/03/21 02:44:58;;;;;;;14.13;11.57;;;7.60;99.90;;;;;;5080814;28;20216;-78
2021/03/21 02:47:28;;;;;;;17.38;13.07;;;7.50;99.90;;;;;;5082412;28;20197;-78
2021/03/21 02:49:58;;;;;;;18.55;14.10;;;7.60;99.90;;;;;;5080205;28;20524;-78
2021/03/21 02:52:31;;;;;;;16.83;13.18;;;7.50;99.90;;;;;;5080898;28;20188;-78
2021/03/21 02:55:04;;;;;;;17.00;12.50;;;7.50;99.90;;;;;;5083809;28;20283;-77
2021/03/21 02:57:35;;;;;;;19.83;13.65;;;7.50;99.90;;;;;;5082272;28;20288;-80
2021/03/21 03:00:07;;;;;;;18.33;14.40;;;7.50;99.90;;;;;;5078075;28;20196;-78
2021/03/21 03:02:39;;;;;;;19.50;13.70;;;7.50;99.90;;;;;;5081733;28;20208;-79
2021/03/21 03:05:11;;;;;;;16.88;12.35;;;7.50;99.90;;;;;;5073505;28;20258;-77
2021/03/21 03:07:42;;;;;;;21.00;14.15;;;7.50;99.90;;;;;;5079477;28;20276;-80
2021/03/21 03:10:14;;;;;;;21.27;14.65;;;7.50;99.90;;;;;;5081812;28;20192;-80
2021/03/21 03:12:45;;;;;;;21.52;13.15;;;7.50;99.90;;;;;;5080729;28;20282;-77
2021/03/21 03:15:15;;;;;;;21.02;13.88;;;7.50;99.90;;;;;;5080556;28;20686;-77
2021/03/21 03:17:44;;;;;;;17.02;14.02;;;7.50;99.90;;;;;;5079301;28;20279;-77
2021/03/21 03:20:18;;;;;;;19.48;14.88;;;7.50;99.90;;;;;;5082101;28;20188;-78
2021/03/21 03:22:52;;;;;;;19.95;14.23;;;7.50;99.90;;;;;;5076222;28;20276;-78
2021/03/21 03:25:26;;;;;;;18.60;13.95;;;7.50;99.90;;;;;;5075792;28;20227;-78
2021/03/21 03:28:09;;;;;;;24.77;15.10;;;7.40;99.90;;;;;;5084807;28;20555;-78
2021/03/21 03:30:43;;;;;;;18.55;13.75;;;7.40;99.90;;;;;;5083972;28;20221;-76
2021/03/21 03:33:10;;;;;;;20.48;14.30;;;7.40;99.90;;;;;;5079657;28;20286;-78
2021/03/21 03:35:37;;;;;;;29.38;15.38;;;7.40;99.90;;;;;;5077650;28;20224;-79
2021/03/21 03:38:06;;;;;;;21.08;14.10;;;7.40;99.90;;;;;;5081722;28;20200;-80
2021/03/21 03:40:37;;;;;;;20.05;15.40;;;7.40;99.90;;;;;;5081519;28;20192;-77
2021/03/21 03:43:23;;;;;;;21.90;15.25;;;7.40;99.90;;;;;;5080821;28;20697;-76
2021/03/21 03:46:03;;;;;;;20.25;13.85;;;7.40;99.90;;;;;;5074104;28;20656;-78
2021/03/21 03:48:44;;;;;;;20.20;14.02;;;7.40;99.90;;;;;;5083830;28;20207;-80
2021/03/21 03:51:17;;;;;;;25.05;15.75;;;7.40;99.90;;;;;;5084375;28;20196;-77
2021/03/21 03:54:00;;;;;;;22.73;15.02;;;7.40;99.90;;;;;;5081115;28;20204;-77
2021/03/21 03:56:31;;;;;;;22.08;14.27;;;7.40;99.90;;;;;;5077248;28;20192;-78
2021/03/21 03:59:09;;;;;;;21.00;14.57;;;7.40;99.90;;;;;;5080851;28;20199;-78
2021/03/21 04:01:42;;;;;;;20.35;14.38;;;7.40;99.90;;;;;;5082199;28;20297;-78
2021/03/21 04:04:17;;;;;;;19.25;13.57;;;7.40;99.90;;;;;;5081883;28;20307;-77
2021/03/21 04:06:54;;;;;;;26.13;15.43;;;7.40;99.90;;;;;;5077658;28;20193;-76
2021/03/21 04:09:28;;;;;;;22.58;13.20;;;7.40;99.90;;;;;;5084464;28;20223;-78
2021/03/21 04:12:08;;;;;;;22.02;15.20;;;7.30;99.90;;;;;;5083774;28;20230;-78
2021/03/21 04:14:41;;;;;;;19.60;13.68;;;7.40;99.90;;;;;;5079551;28;20196;-77
2021/03/21 04:17:15;;;;;;;21.00;14.60;;;7.40;99.90;;;;;;5078782;28;20283;-78
2021/03/21 04:19:46;;;;;;;23.05;15.35;;;7.40;99.90;;;;;;5074773;28;20291;-78
2021/03/21 04:22:18;;;;;;;23.40;14.75;;;7.30;99.90;;;;;;5084160;28;20192;-79
2021/03/21 04:24:50;;;;;;;21.40;14.05;;;7.40;99.90;;;;;;5081936;28;20314;-78
2021/03/21 04:27:21;;;;;;;27.23;15.25;;;7.40;99.90;;;;;;5082754;28;20272;-77
2021/03/21 04:29:54;;;;;;;24.33;14.40;;;7.40;99.90;;;;;;5077669;28;20189;-78
2021/03/21 04:32:26;;;;;;;20.98;14.50;;;7.40;99.90;;;;;;5081669;28;20199;-80
2021/03/21 04:34:57;;;;;;;20.95;13.65;;;7.40;99.90;;;;;;5081090;28;20192;-79
2021/03/21 04:37:25;;;;;;;25.75;16.70;;;7.40;99.90;;;;;;5079515;28;20773;-77
2021/03/21 04:39:54;;;;;;;23.20;14.82;;;7.40;99.90;;;;;;5082895;28;20232;-79
2021/03/21 04:42:27;;;;;;;23.58;16.10;;;7.40;99.90;;;;;;5080733;28;20283;-78
2021/03/21 04:44:58;;;;;;;26.90;15.27;;;7.40;99.90;;;;;;5076136;28;20326;-77
2021/03/21 04:47:30;;;;;;;26.95;16.60;;;7.40;99.90;;;;;;5081425;28;20639;-77
2021/03/21 04:49:57;;;;;;;27.25;17.23;;;7.40;99.90;;;;;;5081663;28;20227;-79
2021/03/21 04:52:37;;;;;;;31.25;18.15;;;7.40;99.90;;;;;;5079041;28;20196;-78
2021/03/21 04:55:06;;;;;;;31.40;18.83;;;7.40;99.90;;;;;;5085192;28;20188;-78
2021/03/21 04:57:37;;;;;;;30.58;19.73;;;7.30;99.90;;;;;;5082578;28;20730;-78
2021/03/21 05:00:07;;;;;;;39.42;22.05;;;7.40;99.90;;;;;;5079863;28;20202;-77
2021/03/21 05:02:37;;;;;;;32.75;19.55;;;7.30;99.90;;;;;;5077681;28;20234;-79
2021/03/21 05:05:10;;;;;;;35.33;21.38;;;7.40;99.90;;;;;;5082701;28;20678;-78
2021/03/21 05:07:42;;;;;;;33.40;21.05;;;7.30;99.90;;;;;;5084127;28;20206;-77
2021/03/21 05:10:16;;;;;;;42.30;22.75;;;7.40;99.90;;;;;;5086400;28;20240;-78
2021/03/21 05:12:46;;;;;;;41.53;22.33;;;7.40;99.90;;;;;;5089238;28;20290;-77
2021/03/21 05:15:19;;;;;;;44.58;23.23;;;7.40;99.90;;;;;;5087918;28;20292;-78
2021/03/21 05:17:57;;;;;;;44.65;22.90;;;7.40;99.90;;;;;;5086205;28;20187;-81
2021/03/21 05:20:31;;;;;;;40.33;22.38;;;7.40;99.90;;;;;;5082901;28;20236;-77
2021/03/21 05:23:10;;;;;;;38.28;21.60;;;7.40;99.90;;;;;;5080662;28;20192;-80
2021/03/21 05:25:43;;;;;;;46.25;24.08;;;7.30;99.90;;;;;;5083417;28;20223;-78
2021/03/21 05:28:16;;;;;;;45.70;24.17;;;7.30;99.90;;;;;;5086739;28;20637;-78
2021/03/21 05:30:42;;;;;;;46.60;25.25;;;7.40;99.90;;;;;;5084280;28;20195;-76
2021/03/21 05:33:10;;;;;;;48.95;24.52;;;7.40;99.90;;;;;;5087244;28;20259;-78
2021/03/21 05:35:39;;;;;;;45.45;22.98;;;7.40;99.90;;;;;;5078807;28;20291;-80
2021/03/21 05:38:17;;;;;;;46.15;25.42;;;7.40;99.90;;;;;;5083003;28;20602;-77
2021/03/21 05:41:25;;;;;;;50.45;23.50;;;7.30;99.90;;;;;;5080360;28;20201;-77
2021/03/21 05:44:19;;;;;;;45.83;22.98;;;7.30;99.90;;;;;;5003563;28;20252;-77
2021/03/21 05:47:30;;;;;;;37.72;21.40;;;7.40;99.90;;;;;;5076516;28;20284;-77
2021/03/21 05:50:17;;;;;;;46.08;24.17;;;7.30;99.90;;;;;;5055614;28;20329;-76
2021/03/21 05:53:01;;;;;;;43.75;25.52;;;7.30;99.90;;;;;;5082253;28;20200;-79
2021/03/21 05:55:53;;;;;;;47.40;22.65;;;7.30;99.90;;;;;;5083166;28;20197;-78
2021/03/21 05:58:45;;;;;;;45.47;23.40;;;7.30;99.90;;;;;;5077671;28;20285;-77
2021/03/21 06:01:42;;;;;;;42.97;21.25;;;7.30;99.90;;;;;;5074662;28;20696;-78
2021/03/21 06:04:46;;;;;;;41.78;24.20;;;7.30;99.90;;;;;;5062576;28;20319;-77
2021/03/21 06:08:03;;;;;;;35.25;20.15;;;7.30;99.90;;;;;;5046342;28;20195;-77
2021/03/21 06:10:56;;;;;;;42.75;22.30;;;7.30;99.90;;;;;;5085061;28;20188;-78
2021/03/21 06:13:48;;;;;;;44.65;23.00;;;7.30;99.90;;;;;;5082677;28;20682;-77
2021/03/21 06:16:34;;;;;;;42.78;23.35;;;7.40;99.90;;;;;;5082940;28;20295;-78
2021/03/21 06:19:23;;;;;;;39.40;21.73;;;7.40;99.90;;;;;;5086093;28;20282;-77
2021/03/21 06:22:12;;;;;;;40.28;21.70;;;7.40;99.90;;;;;;5084814;28;20235;-79
2021/03/21 06:25:00;;;;;;;34.00;18.90;;;7.40;99.90;;;;;;5081002;28;20231;-77
2021/03/21 06:27:57;;;;;;;32.53;19.98;;;7.40;99.90;;;;;;5084480;28;20739;-77
2021/03/21 06:30:46;;;;;;;35.72;21.00;;;7.40;99.90;;;;;;5074349;28;20246;-79
2021/03/21 06:33:22;;;;;;;40.85;20.30;;;7.40;99.90;;;;;;5080757;28;20230;-78
2021/03/21 06:36:10;;;;;;;35.97;21.00;;;7.40;99.90;;;;;;5079491;28;20187;-78
2021/03/21 06:39:06;;;;;;;39.08;22.10;;;7.40;99.90;;;;;;5081960;28;20188;-80
2021/03/21 06:42:05;;;;;;;35.55;22.02;;;7.40;99.90;;;;;;5080693;28;20199;-77
2021/03/21 06:45:19;;;;;;;39.60;18.98;;;7.40;99.90;;;;;;5054452;28;20667;-77
2021/03/21 06:48:06;;;;;;;32.08;19.50;;;7.40;99.90;;;;;;5076109;28;20202;-77
2021/03/21 06:50:48;;;;;;;39.63;19.40;;;7.40;99.90;;;;;;5081527;28;20227;-78
2021/03/21 06:53:22;;;;;;;27.67;17.00;;;7.40;99.90;;;;;;5082116;28;20275;-78
2021/03/21 06:55:54;;;;;;;28.48;18.25;;;7.40;99.90;;;;;;5084646;28;20235;-78
2021/03/21 06:59:04;;;;;;;30.10;17.15;;;7.50;99.90;;;;;;5075221;28;20638;-77
2021/03/21 07:01:40;;;;;;;26.17;17.33;;;7.50;99.90;;;;;;5021139;28;20283;-77
2021/03/21 07:04:39;;;;;;;28.23;16.77;;;7.60;99.90;;;;;;5080179;28;20684;-80
2021/03/21 07:07:48;;;;;;;30.77;17.38;;;7.60;99.90;;;;;;5083360;28;20653;-78
2021/03/21 07:10:47;;;;;;;26.60;16.13;;;7.60;99.90;;;;;;5075815;28;20200;-78
2021/03/21 07:13:48;;;;;;;24.63;15.52;;;7.70;99.90;;;;;;5083738;28;20200;-78
2021/03/21 07:16:44;;;;;;;28.88;16.73;;;7.70;99.90;;;;;;5073961;28;20192;-80
2021/03/21 07:19:51;;;;;;;23.20;14.98;;;7.80;99.90;;;;;;5083242;28;20270;-80
2021/03/21 07:23:02;;;;;;;21.27;15.27;;;7.80;99.90;;;;;;5079710;28;20286;-78
2021/03/21 07:25:56;;;;;;;24.85;13.75;;;7.80;99.90;;;;;;5042917;28;20367;-81
2021/03/21 07:28:47;;;;;;;20.42;15.45;;;7.90;99.90;;;;;;5076441;28;20220;-77
2021/03/21 07:31:29;;;;;;;23.08;13.25;;;7.90;99.90;;;;;;5073690;28;20192;-77
2021/03/21 07:34:15;;;;;;;22.90;15.23;;;8.00;99.90;;;;;;5081789;28;20249;-79
2021/03/21 07:36:51;;;;;;;20.77;14.23;;;8.00;99.90;;;;;;5079929;28;20228;-80
2021/03/21 07:39:33;;;;;;;18.10;12.85;;;8.00;99.90;;;;;;5085296;28;20257;-79
2021/03/21 07:42:35;;;;;;;20.42;13.25;;;8.00;99.90;;;;;;5082232;28;20199;-78
2021/03/21 07:45:22;;;;;;;21.77;11.50;;;8.00;99.90;;;;;;5077374;28;21096;-79
2021/03/21 07:48:13;;;;;;;21.55;11.63;;;8.00;99.90;;;;;;5082210;28;20204;-80
2021/03/21 07:50:50;;;;;;;15.00;11.23;;;8.10;99.90;;;;;;5083911;28;20223;-79
2021/03/21 07:53:23;;;;;;;16.85;10.63;;;8.10;99.90;;;;;;5081357;28;20200;-78
2021/03/21 07:55:55;;;;;;;15.75;11.35;;;8.20;99.90;;;;;;5077369;28;20575;-79
2021/03/21 07:58:30;;;;;;;17.75;10.73;;;8.20;99.90;;;;;;5077198;28;20200;-79
2021/03/21 08:00:58;;;;;;;18.15;11.10;;;8.30;99.90;;;;;;5081401;28;20577;-79
2021/03/21 08:03:39;;;;;;;14.07;9.63;;;8.30;99.90;;;;;;5081720;28;20397;-79
2021/03/21 08:06:13;;;;;;;13.10;8.73;;;8.30;99.90;;;;;;5080268;28;20299;-78
2021/03/21 08:08:47;;;;;;;11.65;7.70;;;8.30;99.90;;;;;;5082333;28;20271;-78
2021/03/21 08:11:17;;;;;;;18.63;9.13;;;8.30;99.90;;;;;;5086481;28;20191;-81
2021/03/21 08:13:47;;;;;;;10.60;8.63;;;8.30;99.90;;;;;;5078669;28;20188;-81
2021/03/21 08:16:16;;;;;;;11.50;7.57;;;8.30;99.90;;;;;;5082516;28;20288;-78
2021/03/21 08:18:46;;;;;;;10.73;8.00;;;8.30;99.90;;;;;;5078717;28;20234;-79
2021/03/21 08:21:20;;;;;;;14.90;7.35;;;8.40;99.90;;;;;;5078516;28;20322;-79
2021/03/21 08:23:51;;;;;;;8.18;6.30;;;8.40;99.90;;;;;;5080896;28;20314;-79
2021/03/21 08:26:25;;;;;;;6.72;5.68;;;8.40;99.90;;;;;;5080803;28;20201;-78
2021/03/21 08:29:02;;;;;;;10.57;6.30;;;8.40;99.90;;;;;;5082430;28;20287;-80
2021/03/21 08:31:32;;;;;;;8.45;6.10;;;8.40;99.90;;;;;;5084478;28;20292;-80
2021/03/21 08:34:29;;;;;;;10.10;5.40;;;8.40;99.90;;;;;;5075452;28;20725;-80
2021/03/21 08:36:56;;;;;;;8.23;5.30;;;8.30;99.90;;;;;;5081336;28;20203;-79
2021/03/21 08:39:31;;;;;;;8.75;5.22;;;8.30;99.90;;;;;;5083600;28;20277;-83
2021/03/21 08:42:00;;;;;;;9.35;5.43;;;8.30;99.90;;;;;;5078837;28;20207;-79
2021/03/21 08:44:33;;;;;;;7.45;4.53;;;8.30;99.90;;;;;;5085298;28;20228;-78
2021/03/21 08:47:00;;;;;;;9.80;5.97;;;8.30;99.90;;;;;;5083852;28;20315;-78
2021/03/21 08:49:33;;;;;;;7.05;4.68;;;8.40;99.90;;;;;;5083352;28;20193;-79
2021/03/21 08:52:00;;;;;;;9.50;5.38;;;8.50;99.90;;;;;;5088131;28;20579;-80
2021/03/21 08:54:31;;;;;;;6.10;5.20;;;8.60;99.90;;;;;;5070651;28;20196;-78
2021/03/21 08:57:02;;;;;;;11.02;5.75;;;8.60;99.90;;;;;;5080598;28;20223;-79
2021/03/21 08:59:36;;;;;;;7.10;5.00;;;8.70;99.90;;;;;;5079913;28;20192;-79
2021/03/21 09:02:08;;;;;;;13.23;6.55;;;8.70;99.90;;;;;;5079493;28;20224;-80
2021/03/21 09:04:40;;;;;;;5.63;4.00;;;8.70;99.90;;;;;;5084802;28;20225;-80
2021/03/21 09:07:25;;;;;;;11.02;5.07;;;8.70;99.90;;;;;;5083575;28;20255;-80
2021/03/21 09:10:25;;;;;;;6.07;3.88;;;8.70;99.90;;;;;;5083918;28;20189;-81
2021/03/21 09:12:55;;;;;;;4.45;3.80;;;8.70;99.90;;;;;;5080804;28;20208;-81
2021/03/21 09:15:43;;;;;;;4.95;4.30;;;8.70;99.90;;;;;;5085272;28;20197;-80
2021/03/21 09:18:22;;;;;;;5.85;3.70;;;8.70;99.90;;;;;;5077489;28;20639;-80
2021/03/21 09:21:02;;;;;;;5.28;3.25;;;8.70;99.90;;;;;;5084983;28;20205;-80
2021/03/21 09:23:39;;;;;;;6.20;2.75;;;8.70;99.90;;;;;;5073711;28;20189;-78
2021/03/21 09:26:26;;;;;;;7.63;3.00;;;8.70;99.90;;;;;;5078570;28;20242;-79
2021/03/21 09:28:55;;;;;;;4.22;2.45;;;8.70;99.90;;;;;;5074327;28;20284;-80
2021/03/21 09:31:24;;;;;;;8.10;2.15;;;8.70;99.90;;;;;;5085598;28;20237;-82
2021/03/21 09:33:58;;;;;;;2.70;1.80;;;8.70;99.90;;;;;;5078147;28;20192;-80
2021/03/21 09:36:29;;;;;;;4.05;2.35;;;8.60;99.90;;;;;;5082351;28;20196;-83
2021/03/21 09:38:59;;;;;;;3.67;2.78;;;8.60;99.90;;;;;;5073835;28;20685;-80
2021/03/21 09:41:28;;;;;;;4.90;2.20;;;8.60;99.90;;;;;;5075690;28;20278;-82
2021/03/21 09:43:58;;;;;;;3.53;1.85;;;8.60;99.90;;;;;;5087105;28;20262;-80
2021/03/21 09:46:36;;;;;;;7.13;2.08;;;8.60;99.90;;;;;;5085700;28;20223;-79
2021/03/21 09:49:10;;;;;;;3.05;1.77;;;8.60;99.90;;;;;;5080152;28;20196;-81
2021/03/21 09:51:43;;;;;;;2.75;1.80;;;8.60;99.90;;;;;;5081699;28;20215;-82
2021/03/21 09:54:21;;;;;;;7.13;2.20;;;8.70;99.90;;;;;;5076218;28;20276;-81
2021/03/21 09:56:53;;;;;;;2.75;2.30;;;8.80;99.90;;;;;;5083356;28;20254;-81
2021/03/21 09:59:51;;;;;;;6.80;2.47;;;8.80;99.90;;;;;;5083546;28;20242;-81
2021/03/21 10:02:26;;;;;;;5.03;1.80;;;8.80;99.90;;;;;;5079463;28;20223;-81
2021/03/21 10:04:57;;;;;;;11.50;2.45;;;8.80;99.90;;;;;;5083830;28;20233;-81
2021/03/21 10:07:34;;;;;;;6.60;1.75;;;8.80;99.90;;;;;;5075113;28;20193;-83
2021/03/21 10:10:02;;;;;;;10.75;2.30;;;8.80;99.90;;;;;;5079973;28;20195;-80
2021/03/21 10:12:31;;;;;;;5.65;2.20;;;8.80;99.90;;;;;;5080409;28;20208;-80
2021/03/21 10:15:09;;;;;;;3.47;1.83;;;8.80;99.90;;;;;;5078581;28;20193;-82
2021/03/21 10:17:50;;;;;;;5.50;2.20;;;8.80;99.90;;;;;;5076637;28;20292;-81
2021/03/21 10:20:19;;;;;;;11.25;3.03;;;8.90;99.90;;;;;;5075506;28;20220;-80
2021/03/21 10:23:01;;;;;;;5.85;2.25;;;8.90;99.90;;;;;;5078522;28;20280;-82
2021/03/21 10:25:54;;;;;;;7.57;2.95;;;8.90;99.90;;;;;;5079703;28;20225;-79
2021/03/21 10:28:49;;;;;;;9.60;2.50;;;8.90;99.90;;;;;;5078297;28;20214;-81
2021/03/21 10:31:40;;;;;;;4.30;2.22;;;8.90;99.90;;;;;;5054487;28;20693;-82
2021/03/21 10:34:34;;;;;;;11.77;2.65;;;8.90;99.90;;;;;;5074660;28;20189;-80
2021/03/21 10:37:00;;;;;;;9.30;2.60;;;9.00;99.90;;;;;;5077472;28;20232;-81
2021/03/21 10:39:56;;;;;;;5.80;2.35;;;9.00;99.90;;;;;;5073326;28;20202;-81
2021/03/21 10:42:53;;;;;;;9.82;2.58;;;9.10;99.90;;;;;;5075757;28;20210;-81
2021/03/21 10:45:49;;;;;;;4.80;1.90;;;9.10;99.90;;;;;;5077639;28;20649;-82
2021/03/21 10:48:53;;;;;;;9.65;2.88;;;9.20;99.90;;;;;;5081484;28;20318;-80
2021/03/21 10:51:20;;;;;;;5.63;2.25;;;9.20;99.90;;;;;;5079398;28;20695;-79
2021/03/21 10:54:14;;;;;;;5.53;2.53;;;9.20;99.90;;;;;;5081258;28;20301;-80
2021/03/21 10:56:40;;;;;;;8.27;2.95;;;9.10;99.90;;;;;;5074241;28;20201;-80
2021/03/21 10:59:13;;;;;;;11.27;3.40;;;9.20;99.90;;;;;;5078490;28;20330;-81
2021/03/21 11:01:41;;;;;;;10.45;2.65;;;9.20;99.90;;;;;;5082612;28;20756;-80
2021/03/21 11:04:25;;;;;;;12.35;3.03;;;9.20;99.90;;;;;;5075502;28;20277;-80
2021/03/21 11:06:55;;;;;;;10.52;2.80;;;9.20;99.90;;;;;;5075818;28;20283;-79
2021/03/21 11:09:25;;;;;;;9.38;2.65;;;9.20;99.90;;;;;;5074675;28;20281;-82
2021/03/21 11:11:52;;;;;;;6.85;2.60;;;9.30;99.90;;;;;;5080369;28;20228;-79
2021/03/21 11:14:22;;;;;;;3.78;2.25;;;9.30;99.90;;;;;;5082981;28;20198;-81
2021/03/21 11:16:52;;;;;;;6.80;2.67;;;9.40;99.90;;;;;;5078386;28;20197;-81
2021/03/21 11:19:19;;;;;;;5.40;2.67;;;9.40;99.90;;;;;;5078161;28;20313;-82
2021/03/21 11:21:46;;;;;;;16.35;3.40;;;9.50;99.90;;;;;;5084320;28;20250;-79
2021/03/21 11:24:31;;;;;;;9.75;2.85;;;9.50;99.90;;;;;;5084548;28;20227;-81
2021/03/21 11:26:59;;;;;;;7.00;2.95;;;9.40;99.90;;;;;;5067276;28;20228;-79
2021/03/21 11:29:30;;;;;;;12.77;3.65;;;9.50;99.90;;;;;;5083928;28;20293;-79
2021/03/21 11:32:11;;;;;;;12.25;3.47;;;9.50;99.90;;;;;;5079498;28;20304;-79
2021/03/21 11:34:37;;;;;;;8.73;4.38;;;9.50;99.90;;;;;;5074695;28;20205;-81
2021/03/21 11:37:08;;;;;;;16.05;3.35;;;9.50;99.90;;;;;;5077635;28;20214;-82
2021/03/21 11:39:38;;;;;;;16.77;4.53;;;9.50;99.90;;;;;;5078629;28;20229;-80
2021/03/21 11:42:18;;;;;;;12.68;4.25;;;9.50;99.90;;;;;;5072558;28;20194;-80
2021/03/21 11:44:48;;;;;;;15.90;4.00;;;9.60;99.90;;;;;;5083324;28;20304;-79
2021/03/21 11:47:28;;;;;;;12.88;3.17;;;9.60;99.90;;;;;;5076806;28;20217;-80
2021/03/21 11:49:56;;;;;;;21.63;5.93;;;9.60;99.90;;;;;;5078851;28;20672;-80
2021/03/21 11:52:24;;;;;;;22.08;3.97;;;9.60;99.90;;;;;;5076842;28;20290;-81
2021/03/21 11:57:57;;;;;;;21.88;4.80;;;9.60;99.90;;;;;;5044841;28;20205;-79
2021/03/21 12:00:27;;;;;;;12.23;3.20;;;9.60;99.90;;;;;;5080819;28;20535;-79
2021/03/21 12:03:01;;;;;;;22.20;4.93;;;9.70;99.90;;;;;;5081756;28;20202;-80
2021/03/21 12:05:29;;;;;;;19.35;5.95;;;9.70;99.90;;;;;;5069239;28;20217;-79
2021/03/21 12:08:22;;;;;;;18.75;4.20;;;9.70;99.90;;;;;;5087540;28;20192;-81
2021/03/21 12:10:49;;;;;;;16.05;4.30;;;9.70;99.90;;;;;;5083496;28;20194;-80
2021/03/21 12:13:27;;;;;;;12.88;4.18;;;9.70;99.90;;;;;;5085295;28;20549;-80
2021/03/21 12:15:55;;;;;;;14.00;4.18;;;9.60;99.90;;;;;;5083588;28;20545;-80
2021/03/21 12:18:24;;;;;;;27.02;5.72;;;9.60;99.90;;;;;;5084467;28;20255;-82
2021/03/21 12:20:54;;;;;;;17.67;4.22;;;9.70;99.90;;;;;;5087006;28;20185;-79
2021/03/21 12:23:37;;;;;;;19.17;5.15;;;9.80;99.90;;;;;;5085982;28;20199;-80
2021/03/21 12:26:21;;;;;;;22.55;4.55;;;9.90;99.90;;;;;;5087983;28;20222;-80
2021/03/21 12:29:02;;;;;;;23.90;6.53;;;9.90;99.90;;;;;;5084304;28;20219;-81
2021/03/21 12:31:35;;;;;;;14.07;3.58;;;9.90;99.90;;;;;;5084389;28;20288;-80
2021/03/21 12:34:24;;;;;;;17.98;4.70;;;9.90;99.90;;;;;;5082981;28;20253;-82
2021/03/21 12:37:06;;;;;;;13.30;3.88;;;9.90;99.90;;;;;;5081988;28;20205;-80
2021/03/21 12:39:35;;;;;;;15.15;4.43;;;9.90;99.90;;;;;;5079525;28;20613;-79
2021/03/21 12:42:03;;;;;;;12.60;5.03;;;9.90;99.90;;;;;;5086324;28;20260;-80
2021/03/21 12:44:31;;;;;;;22.08;6.80;;;9.90;99.90;;;;;;5084787;28;20204;-79
2021/03/21 12:47:03;;;;;;;19.13;4.85;;;10.00;99.90;;;;;;5080065;28;20213;-79
2021/03/21 12:49:36;;;;;;;16.98;3.80;;;10.00;99.90;;;;;;5084416;28;20202;-80
2021/03/21 12:52:06;;;;;;;12.98;4.18;;;10.00;99.90;;;;;;5085899;28;20194;-80
2021/03/21 12:54:32;;;;;;;16.70;4.45;;;10.00;99.90;;;;;;5079584;28;20784;-79
2021/03/21 12:56:59;;;;;;;13.32;4.32;;;10.00;99.90;;;;;;5079782;28;20277;-79
2021/03/21 12:59:25;;;;;;;16.38;4.72;;;9.90;99.90;;;;;;5079802;28;20198;-80
2021/03/21 13:01:51;;;;;;;13.55;4.90;;;9.90;99.90;;;;;;5082108;28;20225;-80
2021/03/21 13:04:19;;;;;;;16.25;4.55;;;9.90;99.90;;;;;;5082023;28;20285;-80
2021/03/21 13:06:46;;;;;;;20.65;5.70;;;9.90;99.90;;;;;;5071676;28;20241;-79
2021/03/21 13:09:13;;;;;;;14.68;5.13;;;9.90;99.90;;;;;;5077963;28;20242;-79
2021/03/21 13:11:40;;;;;;;18.50;4.43;;;9.90;99.90;;;;;;5081785;28;20191;-80
2021/03/21 13:14:07;;;;;;;10.65;3.30;;;10.00;99.90;;;;;;5074426;28;20225;-79
2021/03/21 13:16:33;;;;;;;16.08;5.35;;;10.00;99.90;;;;;;5086987;28;20202;-81
2021/03/21 13:19:00;;;;;;;15.32;4.43;;;10.10;99.90;;;;;;5082405;28;20203;-79
2021/03/21 13:21:26;;;;;;;17.15;5.22;;;10.20;99.90;;;;;;5077678;28;20591;-79
2021/03/21 13:23:54;;;;;;;19.50;4.72;;;10.20;99.90;;;;;;5078798;28;20199;-79
2021/03/21 13:26:20;;;;;;;15.35;3.80;;;10.20;99.90;;;;;;5080620;28;20227;-79
2021/03/21 13:28:46;;;;;;;19.15;4.22;;;10.20;99.90;;;;;;5083221;28;20195;-80
2021/03/21 13:31:13;;;;;;;14.63;4.15;;;10.20;99.90;;;;;;5078674;28;20192;-79